createdAt,value
2016-07-20T00:00:51.457Z,21.06
2016-07-20T00:01:52.192Z,21
2016-07-20T00:02:51.500Z,20.96
2016-07-20T00:03:51.521Z,21.06
2016-07-20T00:04:52.259Z,20.99
2016-07-20T00:05:52.282Z,20.97
2016-07-20T00:06:51.584Z,20.87
2016-07-20T00:07:51.603Z,20.95
2016-07-20T00:08:51.626Z,21
2016-07-20T00:09:52.364Z,20.96
2016-07-20T00:10:51.668Z,20.87
2016-07-20T00:11:51.691Z,21.03
2016-07-20T00:12:52.428Z,21
2016-07-20T00:13:52.446Z,20.97
2016-07-20T00:14:52.471Z,20.93
2016-07-20T00:15:51.775Z,20.93
2016-07-20T00:16:53.231Z,20.99
2016-07-20T00:17:52.539Z,20.99
2016-07-20T00:18:51.838Z,20.99
2016-07-20T00:19:52.579Z,21.02
2016-07-20T00:20:52.596Z,20.93
2016-07-20T00:21:51.900Z,21
2016-07-20T00:22:51.927Z,20.95
2016-07-20T00:23:51.947Z,21
2016-07-20T00:24:51.966Z,20.99
2016-07-20T00:25:52.005Z,21
2016-07-20T00:26:52.010Z,21
2016-07-20T00:27:52.750Z,20.97
2016-07-20T00:28:52.057Z,20.93
2016-07-20T00:29:52.074Z,21.05
2016-07-20T00:30:52.095Z,20.92
2016-07-20T00:31:52.116Z,21.03
2016-07-20T00:32:52.139Z,21.02
2016-07-20T00:33:52.882Z,20.88
2016-07-20T00:34:52.180Z,21
2016-07-20T00:35:52.925Z,20.96
2016-07-20T00:36:52.225Z,21
2016-07-20T00:37:52.243Z,20.97
2016-07-20T00:38:52.268Z,20.92
2016-07-20T00:39:53.003Z,20.99
2016-07-20T00:40:53.028Z,20.87
2016-07-20T00:41:53.042Z,20.95
2016-07-20T00:42:52.352Z,20.87
2016-07-20T00:43:53.088Z,20.93
2016-07-20T00:44:52.397Z,20.92
2016-07-20T00:45:53.130Z,20.92
2016-07-20T00:46:52.442Z,20.96
2016-07-20T00:47:53.181Z,20.95
2016-07-20T00:48:52.478Z,21.05
2016-07-20T00:49:53.215Z,21.07
2016-07-20T00:50:53.239Z,20.97
2016-07-20T00:51:53.258Z,20.88
2016-07-20T00:52:52.567Z,20.97
2016-07-20T00:53:54.021Z,20.97
2016-07-20T00:54:53.323Z,20.97
2016-07-20T00:55:53.344Z,21.05
2016-07-20T00:56:52.647Z,21.02
2016-07-20T00:57:52.672Z,20.96
2016-07-20T00:58:53.411Z,21
2016-07-20T00:59:53.432Z,21.03
2016-07-20T01:00:52.735Z,20.95
2016-07-20T01:01:52.756Z,20.92
2016-07-20T01:02:52.783Z,20.93
2016-07-20T01:03:52.798Z,20.87
2016-07-20T01:04:52.821Z,20.95
2016-07-20T01:05:53.559Z,20.96
2016-07-20T01:06:52.862Z,20.97
2016-07-20T01:07:54.317Z,21.03
2016-07-20T01:08:53.624Z,20.95
2016-07-20T01:09:53.643Z,21.02
2016-07-20T01:10:53.663Z,20.88
2016-07-20T01:11:53.687Z,20.96
2016-07-20T01:12:52.989Z,21
2016-07-20T01:13:53.730Z,20.97
2016-07-20T01:14:53.030Z,21.05
2016-07-20T01:15:53.054Z,20.87
2016-07-20T01:16:53.791Z,21
2016-07-20T01:17:53.093Z,21.02
2016-07-20T01:18:53.115Z,20.99
2016-07-20T01:19:54.580Z,20.92
2016-07-20T01:20:53.881Z,20.97
2016-07-20T01:21:53.908Z,21
2016-07-20T01:22:53.206Z,20.99
2016-07-20T01:23:54.657Z,20.95
2016-07-20T01:24:53.249Z,20.88
2016-07-20T01:25:53.266Z,20.99
2016-07-20T01:26:54.006Z,20.95
2016-07-20T01:27:53.313Z,21.02
2016-07-20T01:28:53.331Z,20.95
2016-07-20T01:29:53.352Z,21.02
2016-07-20T01:30:53.373Z,20.96
2016-07-20T01:31:53.406Z,20.97
2016-07-20T01:32:53.416Z,20.95
2016-07-20T01:33:54.161Z,21
2016-07-20T01:34:54.185Z,21.02
2016-07-20T01:35:53.479Z,20.99
2016-07-20T01:36:54.936Z,21.02
2016-07-20T01:37:53.521Z,21.02
2016-07-20T01:38:53.545Z,21.03
2016-07-20T01:39:53.574Z,21
2016-07-20T01:40:54.304Z,20.93
2016-07-20T01:41:54.326Z,20.99
2016-07-20T01:42:53.632Z,20.99
2016-07-20T01:43:53.648Z,20.97
2016-07-20T01:44:53.668Z,21.05
2016-07-20T01:45:53.695Z,21.02
2016-07-20T01:46:53.714Z,21.02
2016-07-20T01:47:53.734Z,21.03
2016-07-20T01:48:53.759Z,21.03
2016-07-20T01:49:53.779Z,21.06
2016-07-20T01:50:53.800Z,21.06
2016-07-20T01:51:53.821Z,20.95
2016-07-20T01:52:53.840Z,20.97
2016-07-20T01:53:54.584Z,20.95
2016-07-20T01:54:53.883Z,20.92
2016-07-20T01:55:53.905Z,21.02
2016-07-20T01:56:54.651Z,20.97
2016-07-20T01:57:55.382Z,21.05
2016-07-20T01:58:54.685Z,20.99
2016-07-20T01:59:54.705Z,20.99
2016-07-20T02:00:54.023Z,21.03
2016-07-20T02:01:54.031Z,20.88
2016-07-20T02:02:54.774Z,21
2016-07-20T02:03:54.794Z,20.99
2016-07-20T02:04:54.098Z,21.02
2016-07-20T02:05:54.121Z,21.02
2016-07-20T02:06:55.572Z,20.93
2016-07-20T02:07:54.167Z,20.96
2016-07-20T02:08:54.189Z,20.99
2016-07-20T02:09:54.212Z,20.99
2016-07-20T02:10:54.238Z,21.02
2016-07-20T02:11:54.245Z,20.99
2016-07-20T02:12:54.991Z,20.96
2016-07-20T02:13:55.005Z,21
2016-07-20T02:14:54.311Z,21
2016-07-20T02:15:55.049Z,21
2016-07-20T02:16:54.349Z,21.02
2016-07-20T02:17:54.373Z,20.97
2016-07-20T02:18:55.090Z,20.96
2016-07-20T02:19:54.409Z,20.95
2016-07-20T02:20:54.432Z,21.02
2016-07-20T02:21:55.167Z,21.02
2016-07-20T02:22:54.477Z,20.96
2016-07-20T02:23:54.487Z,20.99
2016-07-20T02:24:55.955Z,20.99
2016-07-20T02:25:54.539Z,21.03
2016-07-20T02:26:54.560Z,20.97
2016-07-20T02:27:54.575Z,21.02
2016-07-20T02:28:54.597Z,20.96
2016-07-20T02:29:55.326Z,21
2016-07-20T02:30:54.639Z,20.96
2016-07-20T02:31:54.676Z,20.97
2016-07-20T02:32:54.694Z,21.03
2016-07-20T02:33:54.703Z,21.03
2016-07-20T02:34:54.729Z,21.02
2016-07-20T02:35:54.756Z,20.99
2016-07-20T02:36:54.767Z,21.03
2016-07-20T02:37:56.222Z,20.97
2016-07-20T02:38:55.530Z,21.05
2016-07-20T02:39:55.558Z,20.93
2016-07-20T02:40:54.854Z,20.88
2016-07-20T02:41:54.884Z,20.92
2016-07-20T02:42:54.898Z,20.92
2016-07-20T02:43:54.912Z,21.02
2016-07-20T02:44:55.652Z,21.02
2016-07-20T02:45:54.968Z,21.03
2016-07-20T02:46:55.699Z,20.96
2016-07-20T02:47:55.719Z,21.03
2016-07-20T02:48:55.762Z,21.03
2016-07-20T02:49:56.472Z,20.96
2016-07-20T02:50:55.768Z,21.05
2016-07-20T02:51:55.084Z,21.07
2016-07-20T02:52:55.115Z,21
2016-07-20T02:53:56.572Z,20.96
2016-07-20T02:54:55.867Z,20.99
2016-07-20T02:55:55.175Z,21.03
2016-07-20T02:56:56.623Z,21.02
2016-07-20T02:57:55.921Z,21.06
2016-07-20T02:58:55.241Z,21.03
2016-07-20T02:59:55.975Z,21.03
2016-07-20T03:00:55.303Z,21.03
2016-07-20T03:01:55.300Z,21.03
2016-07-20T03:02:55.327Z,20.97
2016-07-20T03:03:56.050Z,20.95
2016-07-20T03:04:56.077Z,20.96
2016-07-20T03:05:56.089Z,20.95
2016-07-20T03:06:55.409Z,20.92
2016-07-20T03:07:56.150Z,20.97
2016-07-20T03:08:56.164Z,20.92
2016-07-20T03:09:56.173Z,21
2016-07-20T03:10:55.493Z,20.99
2016-07-20T03:11:56.236Z,21.02
2016-07-20T03:12:55.529Z,21.02
2016-07-20T03:13:55.562Z,20.95
2016-07-20T03:14:55.581Z,21
2016-07-20T03:15:56.322Z,21.03
2016-07-20T03:16:55.619Z,20.99
2016-07-20T03:17:55.639Z,21.02
2016-07-20T03:18:55.659Z,20.97
2016-07-20T03:19:55.696Z,20.97
2016-07-20T03:20:55.697Z,21.03
2016-07-20T03:21:56.448Z,21.02
2016-07-20T03:22:55.751Z,20.88
2016-07-20T03:23:55.772Z,20.88
2016-07-20T03:24:55.794Z,21.03
2016-07-20T03:25:57.254Z,21
2016-07-20T03:26:55.843Z,21.03
2016-07-20T03:27:55.857Z,21.03
2016-07-20T03:28:56.587Z,21
2016-07-20T03:29:56.623Z,20.96
2016-07-20T03:30:55.915Z,21.02
2016-07-20T03:31:56.664Z,20.99
2016-07-20T03:32:55.963Z,21.03
2016-07-20T03:33:56.703Z,21.03
2016-07-20T03:34:56.011Z,21.03
2016-07-20T03:35:56.753Z,21
2016-07-20T03:36:56.761Z,21
2016-07-20T03:37:56.064Z,21.05
2016-07-20T03:38:56.087Z,21
2016-07-20T03:39:56.110Z,20.96
2016-07-20T03:40:56.128Z,21.05
2016-07-20T03:41:56.854Z,20.99
2016-07-20T03:42:56.175Z,21.02
2016-07-20T03:43:56.198Z,20.99
2016-07-20T03:44:56.928Z,21
2016-07-20T03:45:56.237Z,21.02
2016-07-20T03:46:56.268Z,21.02
2016-07-20T03:47:56.294Z,20.95
2016-07-20T03:48:56.306Z,21.02
2016-07-20T03:49:57.043Z,20.99
2016-07-20T03:50:56.342Z,20.97
2016-07-20T03:51:56.365Z,20.95
2016-07-20T03:52:56.388Z,20.95
2016-07-20T03:53:57.845Z,20.88
2016-07-20T03:54:56.430Z,20.99
2016-07-20T03:55:57.150Z,20.99
2016-07-20T03:56:56.470Z,20.92
2016-07-20T03:57:56.491Z,20.95
2016-07-20T03:58:56.516Z,21.03
2016-07-20T03:59:56.529Z,20.97
2016-07-20T04:00:57.282Z,21
2016-07-20T04:01:56.581Z,21.02
2016-07-20T04:02:56.597Z,21.03
2016-07-20T04:03:56.611Z,21.03
2016-07-20T04:04:56.639Z,20.99
2016-07-20T04:05:57.368Z,20.96
2016-07-20T04:06:58.111Z,20.99
2016-07-20T04:07:57.415Z,20.99
2016-07-20T04:08:56.714Z,20.99
2016-07-20T04:09:57.449Z,21.02
2016-07-20T04:10:57.490Z,21
2016-07-20T04:11:58.228Z,20.96
2016-07-20T04:12:57.529Z,21.03
2016-07-20T04:13:57.560Z,20.99
2016-07-20T04:14:56.856Z,21.02
2016-07-20T04:15:57.590Z,21.02
2016-07-20T04:16:57.597Z,20.97
2016-07-20T04:17:56.919Z,21
2016-07-20T04:18:57.664Z,20.96
2016-07-20T04:19:56.956Z,21
2016-07-20T04:20:56.967Z,21.05
2016-07-20T04:21:57.709Z,20.92
2016-07-20T04:22:57.034Z,20.95
2016-07-20T04:23:57.775Z,20.99
2016-07-20T04:24:57.071Z,20.93
2016-07-20T04:25:57.079Z,21.02
2016-07-20T04:26:57.116Z,20.95
2016-07-20T04:27:57.837Z,20.99
2016-07-20T04:28:57.204Z,20.93
2016-07-20T04:29:58.612Z,21.02
2016-07-20T04:30:57.914Z,20.95
2016-07-20T04:31:57.929Z,20.9
2016-07-20T04:32:58.675Z,20.9
2016-07-20T04:33:57.259Z,20.99
2016-07-20T04:34:57.275Z,21.05
2016-07-20T04:35:58.023Z,20.97
2016-07-20T04:36:58.040Z,20.95
2016-07-20T04:37:57.337Z,20.97
2016-07-20T04:38:58.071Z,20.97
2016-07-20T04:39:58.084Z,20.97
2016-07-20T04:40:57.399Z,21
2016-07-20T04:41:58.145Z,21.03
2016-07-20T04:42:57.439Z,20.9
2016-07-20T04:43:58.193Z,21.02
2016-07-20T04:44:57.494Z,20.95
2016-07-20T04:45:58.948Z,20.9
2016-07-20T04:46:57.526Z,20.85
2016-07-20T04:47:57.551Z,20.96
2016-07-20T04:48:57.576Z,20.95
2016-07-20T04:49:57.602Z,20.99
2016-07-20T04:50:57.614Z,20.99
2016-07-20T04:51:57.636Z,20.9
2016-07-20T04:52:57.656Z,21
2016-07-20T04:53:57.685Z,20.97
2016-07-20T04:54:57.697Z,21.02
2016-07-20T04:55:57.723Z,20.96
2016-07-20T04:56:59.166Z,20.99
2016-07-20T04:57:57.775Z,20.92
2016-07-20T04:58:58.509Z,20.97
2016-07-20T04:59:57.815Z,20.95
2016-07-20T05:00:58.542Z,20.97
2016-07-20T05:01:57.843Z,21.02
2016-07-20T05:02:58.578Z,20.97
2016-07-20T05:03:57.889Z,20.99
2016-07-20T05:04:58.624Z,21.02
2016-07-20T05:05:57.932Z,20.95
2016-07-20T05:06:57.963Z,20.96
2016-07-20T05:07:59.503Z,20.97
2016-07-20T05:08:58.721Z,20.97
2016-07-20T05:09:58.014Z,20.96
2016-07-20T05:10:59.465Z,20.96
2016-07-20T05:11:58.787Z,20.97
2016-07-20T05:12:59.527Z,20.95
2016-07-20T05:13:58.100Z,20.99
2016-07-20T05:14:58.839Z,21.02
2016-07-20T05:15:58.872Z,21
2016-07-20T05:16:58.175Z,20.97
2016-07-20T05:17:58.896Z,21.02
2016-07-20T05:18:58.218Z,21
2016-07-20T05:19:58.941Z,20.95
2016-07-20T05:20:58.957Z,20.99
2016-07-20T05:21:58.975Z,21
2016-07-20T05:22:58.297Z,20.99
2016-07-20T05:23:58.322Z,20.97
2016-07-20T05:24:58.338Z,20.87
2016-07-20T05:25:58.364Z,20.99
2016-07-20T05:26:58.375Z,20.88
2016-07-20T05:27:59.120Z,20.97
2016-07-20T05:28:58.412Z,21.12
2016-07-20T05:29:58.443Z,20.75
2016-07-20T05:30:58.469Z,19.95
2016-07-20T05:31:58.486Z,19.52
2016-07-20T05:32:58.496Z,19.29
2016-07-20T05:33:59.259Z,19.21
2016-07-20T05:34:59.262Z,19.09
2016-07-20T05:35:59.301Z,19.02
2016-07-20T05:36:58.582Z,18.96
2016-07-20T05:37:58.607Z,18.92
2016-07-20T05:38:59.391Z,19.07
2016-07-20T05:39:58.667Z,18.93
2016-07-20T05:40:59.387Z,18.9
2016-07-20T05:41:58.696Z,18.96
2016-07-20T05:42:58.716Z,18.89
2016-07-20T05:43:58.759Z,18.95
2016-07-20T05:44:58.769Z,18.88
2016-07-20T05:45:58.777Z,18.95
2016-07-20T05:46:58.802Z,18.9
2016-07-20T05:47:58.829Z,18.92
2016-07-20T05:48:58.855Z,18.86
2016-07-20T05:49:58.875Z,18.88
2016-07-20T05:50:58.889Z,18.95
2016-07-20T05:51:58.916Z,18.96
2016-07-20T05:52:59.648Z,18.95
2016-07-20T05:53:58.949Z,18.9
2016-07-20T05:54:58.984Z,18.84
2016-07-20T05:55:58.993Z,18.88
2016-07-20T05:56:59.019Z,18.9
2016-07-20T05:57:59.036Z,18.98
2016-07-20T05:58:59.785Z,18.98
2016-07-20T05:59:59.083Z,18.92
2016-07-20T06:00:59.092Z,18.96
2016-07-20T06:01:59.126Z,18.9
2016-07-20T06:02:59.872Z,18.92
2016-07-20T06:03:59.161Z,18.95
2016-07-20T06:05:00.627Z,18.93
2016-07-20T06:05:59.214Z,18.9
2016-07-20T06:06:59.242Z,18.92
2016-07-20T06:07:59.255Z,19.04
2016-07-20T06:08:59.273Z,18.93
2016-07-20T06:09:59.285Z,19
